Pink Lady — WDE7680 — position and weather

sailwx.info

Track history (hours):
 
Tides and Currents Weather Stations Pressure Air Temp Water Temp Dewpoint Dewpoint Depression Visibility Wind Speed Wind Dir Waves Ship Positions

Pink Lady

Owner: Three Captains Cruises, Brooklyn, NY. More information available from US FCC via Universal Licensing System and Coast Guard Vessel Documentation Center.

Last reported at 2018-Jun-18 01:28 UTC. Time now 2018-Jun-19 14:27 UTC.
Position N 40°35' W 073°50'.

Length 20 m; draft 6 m.

Type: Ship. MMSI: 367396230.

Date/timePositionNaut miles runAvg speedWind from/ knotsBaromVisibWave heightAir tempDewpointWater temp
2018-Jun-18 01:28N 40°35' W 073°50'2 5.2
2018-Jun-18 01:00N 40°34' W 073°53'3 0.6
2018-Jun-17 20:48N 40°34' W 073°56'2 4.7
2018-Jun-17 20:24N 40°34' W 073°59'4 9.3
2018-Jun-17 19:59N 40°37' W 074°03'5 9.7
2018-Jun-17 19:30N 40°41' W 074°02'4 7.1
2018-Jun-17 19:00N 40°37' W 074°03'  
2018-Jun-13 01:53N 40°37' W 073°53'1 2.0
2018-Jun-13 01:28N 40°37' W 073°53'3 3.6
2018-Jun-13 00:34N 40°34' W 073°54'0 5.0
2018-Jun-13 00:31N 40°34' W 073°55'4 0.2
2018-Jun-11 23:54N 40°38' W 073°52'4 0.1
2018-Jun-10 19:23N 40°34' W 073°54'  
Track history (hours):
 
Tides and Currents Weather Stations Pressure Air Temp Water Temp Dewpoint Dewpoint Depression Visibility Wind Speed Wind Dir Waves Ship Positions

Pink Lady

Owner: Three Captains Cruises, Brooklyn, NY. More information available from US FCC via Universal Licensing System and Coast Guard Vessel Documentation Center.

Last reported at 2018-Jun-18 01:28 UTC. Time now 2018-Jun-19 14:27 UTC.
Position N 40°35' W 073°50'.

Length 20 m; draft 6 m.

Type: Ship. MMSI: 367396230.

Date/timePositionNaut miles runAvg speedWind from/ knotsBaromVisibWave heightAir tempDewpointWater temp
2018-Jun-18 01:28N 40°35' W 073°50'2 5.2
2018-Jun-18 01:00N 40°34' W 073°53'3 0.6
2018-Jun-17 20:48N 40°34' W 073°56'2 4.7
2018-Jun-17 20:24N 40°34' W 073°59'4 9.3
2018-Jun-17 19:59N 40°37' W 074°03'5 9.7
2018-Jun-17 19:30N 40°41' W 074°02'4 7.1
2018-Jun-17 19:00N 40°37' W 074°03'  
2018-Jun-13 01:53N 40°37' W 073°53'1 2.0
2018-Jun-13 01:28N 40°37' W 073°53'3 3.6
2018-Jun-13 00:34N 40°34' W 073°54'0 5.0
2018-Jun-13 00:31N 40°34' W 073°55'4 0.2
2018-Jun-11 23:54N 40°38' W 073°52'4 0.1
2018-Jun-10 19:23N 40°34' W 073°54'  

Dump ship's entire track history